createdAt,value
2018-09-05T00:01:07.310Z,57.88
2018-09-05T00:02:16.480Z,57.79
2018-09-05T00:03:25.673Z,57.79
2018-09-05T00:04:35.148Z,57.79
2018-09-05T00:05:44.338Z,57.88
2018-09-05T00:06:53.503Z,57.88
2018-09-05T00:08:02.681Z,57.79
2018-09-05T00:09:11.632Z,57.79
2018-09-05T00:10:20.816Z,57.98
2018-09-05T00:11:30.498Z,57.79
2018-09-05T00:12:39.700Z,57.79
2018-09-05T00:13:48.889Z,57.79
2018-09-05T00:14:58.431Z,57.79
2018-09-05T00:16:07.900Z,57.79
2018-09-05T00:17:17.322Z,57.88
2018-09-05T00:18:27.013Z,57.88
2018-09-05T00:19:36.439Z,57.79
2018-09-05T00:20:45.861Z,57.79
2018-09-05T00:21:55.038Z,57.88
2018-09-05T00:23:04.517Z,57.88
2018-09-05T00:24:13.963Z,57.88
2018-09-05T00:25:22.859Z,57.88
2018-09-05T00:26:32.263Z,58.37
2018-09-05T00:27:41.170Z,58.27
2018-09-05T00:28:51.116Z,58.17
2018-09-05T00:30:00.536Z,58.17
2018-09-05T00:31:09.974Z,58.27
2018-09-05T00:32:19.139Z,58.17
2018-09-05T00:33:28.824Z,57.98
2018-09-05T00:34:37.977Z,58.27
2018-09-05T00:35:46.900Z,57.79
2018-09-05T00:36:56.080Z,58.27
2018-09-05T00:38:05.052Z,57.88
2018-09-05T00:39:14.485Z,57.88
2018-09-05T00:40:23.651Z,58.17
2018-09-05T00:41:33.114Z,57.98
2018-09-05T00:42:42.785Z,58.07
2018-09-05T00:43:52.234Z,58.07
2018-09-05T00:45:00.877Z,58.07
2018-09-05T00:46:10.052Z,58.07
2018-09-05T00:47:19.467Z,58.07
2018-09-05T00:48:28.645Z,58.07
2018-09-05T00:49:38.095Z,58.17
2018-09-05T00:50:48.056Z,58.07
2018-09-05T00:51:57.755Z,58.07
2018-09-05T00:53:07.182Z,58.17
2018-09-05T00:54:16.089Z,58.17
2018-09-05T00:55:25.775Z,58.17
2018-09-05T00:56:34.685Z,58.07
2018-09-05T00:57:44.116Z,58.17
2018-09-05T00:58:53.285Z,58.17
2018-09-05T01:00:02.682Z,57.98
2018-09-05T01:01:11.867Z,58.17
2018-09-05T01:02:21.792Z,57.98
2018-09-05T01:03:31.228Z,57.98
2018-09-05T01:04:40.714Z,57.88
2018-09-05T01:05:50.394Z,57.88
2018-09-05T01:06:59.822Z,58.07
2018-09-05T01:08:08.977Z,58.07
2018-09-05T01:09:18.516Z,58.07
2018-09-05T01:10:27.952Z,58.07
2018-09-05T01:11:36.860Z,57.98
2018-09-05T01:12:46.549Z,58.17
2018-09-05T01:13:56.496Z,58.07
2018-09-05T01:15:05.653Z,58.07
2018-09-05T01:16:15.583Z,58.07
2018-09-05T01:17:25.256Z,58.07
2018-09-05T01:18:34.677Z,57.98
2018-09-05T01:19:43.584Z,58.17
2018-09-05T01:20:52.772Z,58.07
2018-09-05T01:22:02.630Z,57.98
2018-09-05T01:23:11.864Z,57.79
2018-09-05T01:24:21.099Z,57.98
2018-09-05T01:25:31.320Z,57.98
2018-09-05T01:26:41.402Z,57.79
2018-09-05T01:27:51.362Z,57.98
2018-09-05T01:29:01.324Z,58.07
2018-09-05T01:30:10.479Z,57.98
2018-09-05T01:31:19.651Z,57.88
2018-09-05T01:32:29.333Z,57.88
2018-09-05T01:33:38.750Z,57.98
2018-09-05T01:34:48.689Z,58.17
2018-09-05T01:35:57.842Z,58.07
2018-09-05T01:37:07.008Z,58.07
2018-09-05T01:38:16.161Z,58.27
2018-09-05T01:39:25.888Z,58.17
2018-09-05T01:40:35.048Z,58.37
2018-09-05T01:41:44.740Z,57.98
2018-09-05T01:42:54.175Z,58.17
2018-09-05T01:44:03.861Z,58.07
2018-09-05T01:45:13.276Z,58.07
2018-09-05T01:46:22.694Z,58.27
2018-09-05T01:47:31.868Z,58.47
2018-09-05T01:48:41.733Z,58.75
2018-09-05T01:49:51.336Z,58.85
2018-09-05T01:51:01.046Z,58.56
2018-09-05T01:52:10.718Z,58.56
2018-09-05T01:53:19.877Z,58.65
2018-09-05T01:54:29.050Z,58.65
2018-09-05T01:55:38.491Z,58.75
2018-09-05T01:56:48.464Z,58.65
2018-09-05T01:57:57.411Z,58.65
2018-09-05T01:59:06.853Z,58.65
2018-09-05T02:00:16.288Z,58.47
2018-09-05T02:01:26.005Z,58.75
2018-09-05T02:02:35.707Z,58.56
2018-09-05T02:03:44.883Z,58.27
2018-09-05T02:04:54.119Z,58.56
2018-09-05T02:06:03.549Z,58.56
2018-09-05T02:07:12.447Z,58.27
2018-09-05T02:08:21.663Z,58.65
2018-09-05T02:09:31.684Z,58.65
2018-09-05T02:10:40.570Z,58.65
2018-09-05T02:11:50.008Z,58.47
2018-09-05T02:12:59.261Z,58.47
2018-09-05T02:14:08.416Z,58.37
2018-09-05T02:15:18.111Z,58.37
2018-09-05T02:16:27.534Z,58.65
2018-09-05T02:17:37.216Z,58.44
2018-09-05T02:18:46.640Z,58.47
2018-09-05T02:19:56.320Z,58.56
2018-09-05T02:21:06.012Z,58.34
2018-09-05T02:22:15.182Z,58.56
2018-09-05T02:23:24.370Z,58.65
2018-09-05T02:24:34.067Z,58.65
2018-09-05T02:25:43.486Z,58.63
2018-09-05T02:26:53.212Z,58.47
2018-09-05T02:28:03.224Z,58.47
2018-09-05T02:29:12.919Z,58.56
2018-09-05T02:30:22.334Z,58.56
2018-09-05T02:31:31.778Z,58.34
2018-09-05T02:32:40.691Z,58.53
2018-09-05T02:33:50.102Z,58.47
2018-09-05T02:34:59.551Z,58.56
2018-09-05T02:36:09.260Z,58.53
2018-09-05T02:37:18.468Z,58.47
2018-09-05T02:38:27.888Z,58.47
2018-09-05T02:39:37.316Z,58.47
2018-09-05T02:40:46.810Z,58.56
2018-09-05T02:41:56.842Z,58.56
2018-09-05T02:43:05.746Z,58.37
2018-09-05T02:44:15.174Z,58.65
2018-09-05T02:45:24.341Z,58.47
2018-09-05T02:46:33.785Z,58.56
2018-09-05T02:47:43.733Z,58.56
2018-09-05T02:48:53.168Z,58.27
2018-09-05T02:50:02.331Z,58.85
2018-09-05T02:51:12.029Z,58.47
2018-09-05T02:52:21.692Z,59.05
2018-09-05T02:53:31.126Z,59.05
2018-09-05T02:54:40.823Z,58.85
2018-09-05T02:55:49.977Z,58.65
2018-09-05T02:56:59.182Z,58.95
2018-09-05T02:58:08.594Z,59.14
2018-09-05T02:59:18.272Z,58.85
2018-09-05T03:00:28.228Z,58.95
2018-09-05T03:01:37.652Z,58.85
2018-09-05T03:02:47.170Z,58.85
2018-09-05T03:03:56.606Z,58.85
2018-09-05T03:05:06.288Z,58.85
2018-09-05T03:06:15.714Z,58.85
2018-09-05T03:07:25.414Z,58.82
2018-09-05T03:08:34.600Z,58.95
2018-09-05T03:09:44.032Z,58.85
2018-09-05T03:10:53.220Z,58.63
2018-09-05T03:12:02.919Z,58.75
2018-09-05T03:13:12.342Z,58.63
2018-09-05T03:14:21.521Z,58.72
2018-09-05T03:15:31.203Z,58.75
2018-09-05T03:16:40.743Z,58.72
2018-09-05T03:17:49.913Z,58.63
2018-09-05T03:19:06.706Z,58.53
2018-09-05T03:20:16.139Z,58.72
2018-09-05T03:21:25.825Z,58.72
2018-09-05T03:22:34.879Z,58.63
2018-09-05T03:23:44.550Z,58.53
2018-09-05T03:24:54.061Z,58.65
2018-09-05T03:26:03.487Z,58.63
2018-09-05T03:27:12.913Z,58.82
2018-09-05T03:28:22.077Z,58.63
2018-09-05T03:29:31.241Z,58.65
2018-09-05T03:30:40.453Z,58.65
2018-09-05T03:31:50.145Z,58.65
2018-09-05T03:32:59.939Z,58.63
2018-09-05T03:34:09.407Z,58.56
2018-09-05T03:35:18.831Z,58.75
2018-09-05T03:36:28.538Z,58.53
2018-09-05T03:37:37.973Z,58.56
2018-09-05T03:38:47.681Z,58.75
2018-09-05T03:39:57.106Z,58.65
2018-09-05T03:41:06.302Z,58.75
2018-09-05T03:42:15.213Z,58.63
2018-09-05T03:43:24.131Z,58.85
2018-09-05T03:44:33.617Z,58.63
2018-09-05T03:45:42.874Z,58.65
2018-09-05T03:46:52.291Z,58.65
2018-09-05T03:48:01.732Z,58.75
2018-09-05T03:49:10.946Z,58.56
2018-09-05T03:50:20.213Z,58.56
2018-09-05T03:51:29.876Z,58.95
2018-09-05T03:52:39.547Z,58.63
2018-09-05T03:53:48.956Z,58.63
2018-09-05T03:54:58.390Z,58.75
2018-09-05T03:56:07.536Z,58.85
2018-09-05T03:57:16.978Z,58.82
2018-09-05T03:58:26.145Z,58.85
2018-09-05T03:59:35.836Z,58.75
2018-09-05T04:00:44.756Z,58.65
2018-09-05T04:01:54.698Z,58.75
2018-09-05T04:03:03.695Z,58.82
2018-09-05T04:04:12.862Z,58.75
2018-09-05T04:05:22.288Z,58.85
2018-09-05T04:06:31.215Z,58.65
2018-09-05T04:07:40.635Z,58.75
2018-09-05T04:08:50.304Z,58.75
2018-09-05T04:09:59.465Z,58.65
2018-09-05T04:11:08.896Z,58.85
2018-09-05T04:12:18.780Z,58.85
2018-09-05T04:13:28.424Z,58.75
2018-09-05T04:14:38.198Z,58.85
2018-09-05T04:15:46.873Z,58.65
2018-09-05T04:16:56.558Z,58.82
2018-09-05T04:18:05.989Z,58.85
2018-09-05T04:19:15.969Z,58.85
2018-09-05T04:20:25.991Z,58.65
2018-09-05T04:21:35.682Z,58.85
2018-09-05T04:22:45.099Z,58.65
2018-09-05T04:23:54.275Z,58.85
2018-09-05T04:25:03.978Z,58.85
2018-09-05T04:26:13.412Z,58.75
2018-09-05T04:27:22.849Z,58.65
2018-09-05T04:28:32.007Z,58.95
2018-09-05T04:29:42.043Z,58.85
2018-09-05T04:30:51.835Z,58.82
2018-09-05T04:32:00.994Z,58.85
2018-09-05T04:33:10.160Z,58.85
2018-09-05T04:34:19.845Z,58.85
2018-09-05T04:35:29.290Z,58.75
2018-09-05T04:36:39.217Z,58.85
2018-09-05T04:37:49.219Z,58.85
2018-09-05T04:38:58.390Z,58.85
2018-09-05T04:40:07.623Z,58.65
2018-09-05T04:41:17.313Z,58.65
2018-09-05T04:42:26.983Z,58.65
2018-09-05T04:43:36.411Z,58.85
2018-09-05T04:44:45.305Z,58.95
2018-09-05T04:45:54.726Z,59.14
2018-09-05T04:47:04.393Z,58.85
2018-09-05T04:48:13.564Z,58.65
2018-09-05T04:49:22.754Z,58.75
2018-09-05T04:50:32.481Z,58.75
2018-09-05T04:51:41.479Z,58.95
2018-09-05T04:52:51.548Z,58.65
2018-09-05T04:54:00.976Z,58.65
2018-09-05T04:55:10.513Z,58.63
2018-09-05T04:56:20.192Z,59.05
2018-09-05T04:57:29.880Z,58.82
2018-09-05T04:58:39.365Z,59.05
2018-09-05T04:59:49.062Z,58.75
2018-09-05T05:00:58.852Z,58.75
2018-09-05T05:02:08.537Z,58.72
2018-09-05T05:03:17.960Z,59.01
2018-09-05T05:04:27.917Z,58.92
2018-09-05T05:05:38.320Z,59.01
2018-09-05T05:06:48.573Z,58.95
2018-09-05T05:07:58.029Z,58.75
2018-09-05T05:09:07.714Z,58.75
2018-09-05T05:10:17.397Z,58.63
2018-09-05T05:11:26.565Z,58.92
2018-09-05T05:12:36.199Z,58.92
2018-09-05T05:13:46.131Z,58.65
2018-09-05T05:14:56.351Z,58.92
2018-09-05T05:16:05.777Z,58.95
2018-09-05T05:17:15.196Z,58.95
2018-09-05T05:18:24.876Z,58.63
2018-09-05T05:19:33.788Z,58.85
2018-09-05T05:20:43.279Z,58.63
2018-09-05T05:21:52.463Z,58.65
2018-09-05T05:23:02.146Z,58.95
2018-09-05T05:24:11.296Z,58.65
2018-09-05T05:25:20.748Z,58.65
2018-09-05T05:26:29.655Z,58.65
2018-09-05T05:27:39.065Z,58.63
2018-09-05T05:28:48.250Z,58.85
2018-09-05T05:29:57.662Z,58.72
2018-09-05T05:31:06.810Z,58.95
2018-09-05T05:32:15.983Z,58.65
2018-09-05T05:33:25.210Z,58.63
2018-09-05T05:34:34.388Z,58.95
2018-09-05T05:35:44.080Z,58.72
2018-09-05T05:36:53.496Z,58.95
2018-09-05T05:38:03.175Z,58.95
2018-09-05T05:39:12.646Z,58.75
2018-09-05T05:40:22.163Z,58.82
2018-09-05T05:41:31.962Z,58.95
2018-09-05T05:42:41.124Z,58.82
2018-09-05T05:43:50.351Z,58.85
2018-09-05T05:44:59.781Z,58.85
2018-09-05T05:46:09.188Z,58.65
2018-09-05T05:47:18.609Z,58.85
2018-09-05T05:48:27.262Z,58.65
2018-09-05T05:49:36.928Z,58.63
2018-09-05T05:50:46.106Z,58.65
2018-09-05T05:51:55.770Z,58.75
2018-09-05T05:53:05.461Z,58.63
2018-09-05T05:54:14.630Z,58.75
2018-09-05T05:55:24.047Z,58.82
2018-09-05T05:56:33.221Z,58.82
2018-09-05T05:57:42.637Z,58.75
2018-09-05T05:58:52.479Z,58.65
2018-09-05T06:00:02.167Z,58.65
2018-09-05T06:01:11.208Z,58.85
2018-09-05T06:02:20.499Z,58.85
2018-09-05T06:03:30.175Z,59.05
2018-09-05T06:04:39.613Z,59.05
2018-09-05T06:05:48.766Z,58.95
2018-09-05T06:06:58.329Z,58.95
2018-09-05T06:08:07.762Z,58.75
2018-09-05T06:09:16.990Z,58.95
2018-09-05T06:10:26.404Z,58.75
2018-09-05T06:11:36.355Z,58.75
2018-09-05T06:12:45.347Z,58.85
2018-09-05T06:13:54.774Z,58.85
2018-09-05T06:15:04.217Z,58.95
2018-09-05T06:16:13.631Z,59.05
2018-09-05T06:17:23.124Z,59.05
2018-09-05T06:18:32.908Z,59.05
2018-09-05T06:19:42.859Z,59.14
2018-09-05T06:20:52.109Z,58.95
2018-09-05T06:22:01.394Z,59.05
2018-09-05T06:23:10.582Z,58.95
2018-09-05T06:24:19.740Z,58.95
2018-09-05T06:25:29.162Z,58.95
2018-09-05T06:26:38.389Z,59.05
2018-09-05T06:27:47.982Z,59.05
2018-09-05T06:28:58.561Z,59.05
2018-09-05T06:30:07.723Z,59.05
2018-09-05T06:31:17.795Z,59.05
2018-09-05T06:32:28.173Z,58.85
2018-09-05T06:33:37.338Z,59.05
2018-09-05T06:34:46.242Z,58.85
2018-09-05T06:35:55.158Z,58.65
2018-09-05T06:37:04.857Z,58.85
2018-09-05T06:38:14.318Z,58.65
2018-09-05T06:39:23.750Z,59.05
2018-09-05T06:40:32.925Z,58.47
2018-09-05T06:41:42.637Z,58.75
2018-09-05T06:42:52.093Z,58.37
2018-09-05T06:44:02.055Z,58.37
2018-09-05T06:45:11.768Z,58.65
2018-09-05T06:46:21.629Z,58.65
2018-09-05T06:47:31.306Z,59.05
2018-09-05T06:48:40.851Z,58.37
2018-09-05T06:49:50.333Z,58.37
2018-09-05T06:50:59.512Z,58.65
2018-09-05T06:52:08.684Z,58.37
2018-09-05T06:53:18.374Z,59.05
2018-09-05T06:54:28.046Z,58.37
2018-09-05T06:55:38.005Z,58.37
2018-09-05T06:56:47.208Z,58.85
2018-09-05T06:57:56.911Z,58.56
2018-09-05T06:59:06.068Z,58.47
2018-09-05T07:00:15.243Z,58.47
2018-09-05T07:01:24.673Z,58.85
2018-09-05T07:02:34.108Z,58.56
2018-09-05T07:03:43.950Z,58.47
2018-09-05T07:04:53.866Z,58.56
2018-09-05T07:06:03.555Z,58.56
2018-09-05T07:07:13.047Z,58.37
2018-09-05T07:08:22.812Z,58.65
2018-09-05T07:09:32.509Z,58.56
2018-09-05T07:10:41.674Z,58.56
2018-09-05T07:11:51.139Z,58.56
2018-09-05T07:13:00.852Z,58.56
2018-09-05T07:14:10.686Z,58.47
2018-09-05T07:15:20.344Z,58.65
2018-09-05T07:16:29.511Z,58.47
2018-09-05T07:17:39.124Z,58.65
2018-09-05T07:18:49.383Z,58.56
2018-09-05T07:19:58.565Z,58.56
2018-09-05T07:21:08.684Z,58.47
2018-09-05T07:22:17.596Z,58.56
2018-09-05T07:23:27.019Z,58.56
2018-09-05T07:24:36.445Z,58.56
2018-09-05T07:25:46.133Z,58.65
2018-09-05T07:26:55.308Z,58.56
2018-09-05T07:28:04.217Z,58.56
2018-09-05T07:29:13.887Z,58.65
2018-09-05T07:30:23.658Z,58.56
2018-09-05T07:31:33.253Z,58.56
2018-09-05T07:32:42.984Z,58.65
2018-09-05T07:33:52.132Z,58.65
2018-09-05T07:35:02.077Z,58.65
2018-09-05T07:36:11.758Z,58.56
2018-09-05T07:37:21.458Z,58.65
2018-09-05T07:38:31.143Z,58.56
2018-09-05T07:39:40.334Z,58.56
2018-09-05T07:40:50.021Z,58.65
2018-09-05T07:41:59.177Z,58.56
2018-09-05T07:43:08.907Z,58.56
2018-09-05T07:44:18.081Z,58.65
2018-09-05T07:45:27.559Z,58.65
2018-09-05T07:46:36.473Z,58.65
2018-09-05T07:47:45.639Z,58.56
2018-09-05T07:48:55.589Z,58.65
2018-09-05T07:50:04.781Z,58.65
2018-09-05T07:51:13.955Z,58.65
2018-09-05T07:52:23.922Z,58.65
2018-09-05T07:53:33.509Z,58.65
2018-09-05T07:54:42.245Z,58.56
2018-09-05T07:55:51.935Z,58.56
2018-09-05T07:57:01.650Z,58.65
2018-09-05T07:58:11.437Z,58.56
2018-09-05T07:59:20.864Z,58.65
2018-09-05T08:00:30.371Z,58.27
2018-09-05T08:01:39.550Z,58.56
2018-09-05T08:02:49.306Z,58.56
2018-09-05T08:03:59.096Z,58.65
2018-09-05T08:05:08.567Z,58.65
2018-09-05T08:06:18.958Z,58.65
2018-09-05T08:07:28.241Z,58.65
2018-09-05T08:08:38.438Z,58.65
2018-09-05T08:09:47.637Z,58.65
2018-09-05T08:10:57.152Z,58.56
2018-09-05T08:12:06.763Z,58.47
2018-09-05T08:13:15.997Z,58.56
2018-09-05T08:14:25.675Z,58.56
2018-09-05T08:15:35.373Z,58.56
2018-09-05T08:16:45.793Z,58.56
2018-09-05T08:17:55.100Z,58.47
2018-09-05T08:19:04.396Z,58.47
2018-09-05T08:20:13.566Z,58.47
2018-09-05T08:21:23.747Z,58.56
2018-09-05T08:22:33.437Z,58.37
2018-09-05T08:23:43.001Z,58.37
2018-09-05T08:24:52.167Z,58.56
2018-09-05T08:26:01.621Z,58.47
2018-09-05T08:27:11.083Z,58.37
2018-09-05T08:28:20.767Z,58.75
2018-09-05T08:29:30.458Z,58.47
2018-09-05T08:30:39.921Z,58.75
2018-09-05T08:31:49.124Z,58.65
2018-09-05T08:32:58.053Z,58.37
2018-09-05T08:34:07.227Z,58.37
2018-09-05T08:35:17.276Z,58.56
2018-09-05T08:36:28.447Z,58.47
2018-09-05T08:37:39.813Z,58.56
2018-09-05T08:38:50.531Z,58.56
2018-09-05T08:40:01.084Z,58.47
2018-09-05T08:41:10.736Z,58.47
2018-09-05T08:42:21.418Z,58.65
2018-09-05T08:43:31.636Z,58.56
2018-09-05T08:44:41.834Z,58.47
2018-09-05T08:45:53.162Z,58.47
2018-09-05T08:47:03.912Z,58.37
2018-09-05T08:48:13.232Z,58.37
2018-09-05T08:49:22.413Z,58.59
2018-09-05T08:50:31.900Z,58.37
2018-09-05T08:51:41.061Z,58.56
2018-09-05T08:52:50.374Z,58.37
2018-09-05T08:54:00.768Z,58.3
2018-09-05T08:55:10.363Z,58.47
2018-09-05T08:56:20.697Z,58.65
2018-09-05T08:57:30.453Z,58.56
2018-09-05T08:58:39.681Z,58.47
2018-09-05T08:59:49.682Z,58.56
2018-09-05T09:00:59.134Z,58.47
2018-09-05T09:02:08.905Z,58.37
2018-09-05T09:03:18.368Z,58.27
2018-09-05T09:04:28.185Z,58.47
2018-09-05T09:05:38.146Z,58.37
2018-09-05T09:06:47.345Z,58.56
2018-09-05T09:07:56.520Z,58.56
2018-09-05T09:09:06.238Z,58.27
2018-09-05T09:10:15.671Z,58.27
2018-09-05T09:11:25.620Z,58.59
2018-09-05T09:12:35.180Z,58.37
2018-09-05T09:13:44.351Z,58.56
2018-09-05T09:14:53.269Z,58.56
2018-09-05T09:16:02.690Z,58.39
2018-09-05T09:17:12.100Z,58.3
2018-09-05T09:18:21.308Z,58.47
2018-09-05T09:19:31.276Z,58.17
2018-09-05T09:20:40.472Z,58.56
2018-09-05T09:21:49.649Z,58.47
2018-09-05T09:22:59.364Z,58.27
2018-09-05T09:24:09.060Z,58.37
2018-09-05T09:25:18.741Z,58.17
2018-09-05T09:26:28.211Z,58.56
2018-09-05T09:27:37.949Z,58.56
2018-09-05T09:28:47.313Z,58.56
2018-09-05T09:29:56.768Z,58.47
2018-09-05T09:31:06.216Z,58.49
2018-09-05T09:32:15.391Z,58.49
2018-09-05T09:33:24.326Z,58.59
2018-09-05T09:34:33.527Z,58.49
2018-09-05T09:35:43.017Z,58.56
2018-09-05T09:36:52.994Z,58.49
2018-09-05T09:38:02.676Z,58.47
2018-09-05T09:39:12.919Z,58.47
2018-09-05T09:40:22.751Z,58.56
2018-09-05T09:41:32.190Z,58.56
2018-09-05T09:42:41.616Z,58.47
2018-09-05T09:43:51.048Z,58.49
2018-09-05T09:45:00.485Z,58.47
2018-09-05T09:46:10.161Z,58.49
2018-09-05T09:47:20.108Z,58.49
2018-09-05T09:48:29.304Z,58.56
2018-09-05T09:49:39.010Z,58.47
2018-09-05T09:50:48.676Z,58.3
2018-09-05T09:51:58.349Z,58.47
2018-09-05T09:53:07.519Z,58.49
2018-09-05T09:54:16.954Z,58.56
2018-09-05T09:55:26.635Z,58.56
2018-09-05T09:56:35.841Z,58.27
2018-09-05T09:57:45.809Z,58.49
2018-09-05T09:58:55.035Z,58.47
2018-09-05T10:00:04.480Z,58.59
2018-09-05T10:01:13.924Z,58.47
2018-09-05T10:02:23.364Z,58.56
2018-09-05T10:03:33.427Z,58.47
2018-09-05T10:04:44.416Z,58.27
2018-09-05T10:05:54.727Z,58.47
2018-09-05T10:07:04.607Z,58.47
2018-09-05T10:08:14.102Z,58.47
2018-09-05T10:09:23.288Z,58.49
2018-09-05T10:10:33.344Z,58.49
2018-09-05T10:11:42.926Z,58.39
2018-09-05T10:12:52.121Z,58.49
2018-09-05T10:14:01.819Z,58.3
2018-09-05T10:15:11.771Z,58.47
2018-09-05T10:16:21.497Z,58.37
2018-09-05T10:17:31.092Z,58.75
2018-09-05T10:18:40.538Z,58.47
2018-09-05T10:19:49.972Z,58.27
2018-09-05T10:20:59.789Z,58.65
2018-09-05T10:22:10.675Z,58.75
2018-09-05T10:23:20.396Z,58.56
2018-09-05T10:24:30.122Z,58.47
2018-09-05T10:25:39.404Z,58.27
2018-09-05T10:26:48.841Z,58.69
2018-09-05T10:27:57.971Z,58.69
2018-09-05T10:29:07.393Z,58.69
2018-09-05T10:30:17.442Z,58.78
2018-09-05T10:31:27.118Z,58.3
2018-09-05T10:32:36.929Z,58.69
2018-09-05T10:33:46.362Z,58.78
2018-09-05T10:34:56.483Z,58.65
2018-09-05T10:36:05.981Z,58.78
2018-09-05T10:37:15.413Z,58.69
2018-09-05T10:38:25.148Z,58.39
2018-09-05T10:39:34.319Z,58.65
2018-09-05T10:40:44.019Z,58.69
2018-09-05T10:41:53.707Z,58.69
2018-09-05T10:43:03.372Z,58.65
2018-09-05T10:44:13.571Z,58.69
2018-09-05T10:45:23.278Z,58.78
2018-09-05T10:46:33.239Z,58.69
2018-09-05T10:47:42.943Z,58.69
2018-09-05T10:48:52.159Z,58.78
2018-09-05T10:50:01.628Z,58.69
2018-09-05T10:51:10.606Z,58.69
2018-09-05T10:52:20.301Z,58.65
2018-09-05T10:53:29.227Z,58.69
2018-09-05T10:54:38.917Z,58.78
2018-09-05T10:55:48.863Z,58.69
2018-09-05T10:56:58.546Z,58.65
2018-09-05T10:58:08.230Z,58.59
2018-09-05T10:59:18.136Z,58.69
2018-09-05T11:00:27.076Z,58.69
2018-09-05T11:01:36.526Z,58.69
2018-09-05T11:02:45.795Z,58.69
2018-09-05T11:03:54.718Z,58.78
2018-09-05T11:05:04.200Z,58.69
2018-09-05T11:06:14.002Z,58.69
2018-09-05T11:07:22.650Z,58.59
2018-09-05T11:08:31.860Z,58.88
2018-09-05T11:09:41.023Z,58.88
2018-09-05T11:10:50.072Z,58.69
2018-09-05T11:11:59.999Z,58.59
2018-09-05T11:13:09.425Z,58.69
2018-09-05T11:14:19.120Z,58.69
2018-09-05T11:15:28.032Z,58.78
2018-09-05T11:16:37.445Z,58.69
2018-09-05T11:17:47.102Z,58.69
2018-09-05T11:18:56.580Z,58.69
2018-09-05T11:20:06.364Z,58.59
2018-09-05T11:21:15.600Z,58.69
2018-09-05T11:22:25.344Z,58.69
2018-09-05T11:23:35.034Z,58.69
2018-09-05T11:24:44.729Z,58.69
2018-09-05T11:25:54.494Z,58.78
2018-09-05T11:27:03.194Z,58.69
2018-09-05T11:28:12.620Z,58.69
2018-09-05T11:29:22.045Z,58.69
2018-09-05T11:30:31.526Z,58.88
2018-09-05T11:31:41.046Z,58.69
2018-09-05T11:32:50.476Z,58.69
2018-09-05T11:34:00.259Z,58.69
2018-09-05T11:35:09.976Z,58.69
2018-09-05T11:36:19.157Z,58.69
2018-09-05T11:37:28.823Z,58.69
2018-09-05T11:38:37.723Z,58.69
2018-09-05T11:39:47.202Z,58.69
2018-09-05T11:40:56.367Z,58.69
2018-09-05T11:42:05.789Z,58.69
2018-09-05T11:43:15.474Z,58.69
2018-09-05T11:44:24.978Z,58.88
2018-09-05T11:45:34.691Z,58.69
2018-09-05T11:46:43.848Z,58.69
2018-09-05T11:47:53.016Z,58.59
2018-09-05T11:49:02.269Z,58.78
2018-09-05T11:50:11.169Z,58.78
2018-09-05T11:51:20.850Z,58.78
2018-09-05T11:52:29.759Z,58.78
2018-09-05T11:53:39.163Z,58.2
2018-09-05T11:54:49.118Z,58.78
2018-09-05T11:55:58.525Z,58.2
2018-09-05T11:57:07.754Z,58.78
2018-09-05T11:58:17.656Z,58.78
2018-09-05T11:59:27.165Z,58.2
2018-09-05T12:00:36.353Z,57.91
2018-09-05T12:01:45.766Z,58.78
2018-09-05T12:02:55.513Z,58.2
2018-09-05T12:04:05.195Z,58.2
2018-09-05T12:05:14.128Z,58.78
2018-09-05T12:06:23.298Z,58.78
2018-09-05T12:07:32.495Z,58.2
2018-09-05T12:08:41.663Z,58.11
2018-09-05T12:09:51.299Z,58.2
2018-09-05T12:11:00.751Z,58.01
2018-09-05T12:12:10.889Z,58.11
2018-09-05T12:13:20.985Z,58.2
2018-09-05T12:14:30.416Z,58.01
2018-09-05T12:15:39.850Z,58.2
2018-09-05T12:16:49.031Z,58.2
2018-09-05T12:17:58.493Z,58.01
2018-09-05T12:19:08.209Z,58.11
2018-09-05T12:20:17.630Z,57.81
2018-09-05T12:21:27.079Z,57.91
2018-09-05T12:22:37.059Z,57.91
2018-09-05T12:23:47.033Z,58.2
2018-09-05T12:24:56.700Z,58.11
2018-09-05T12:26:06.398Z,57.81
2018-09-05T12:27:16.140Z,57.91
2018-09-05T12:28:25.827Z,57.91
2018-09-05T12:29:35.813Z,57.91
2018-09-05T12:30:45.509Z,57.91
2018-09-05T12:31:55.169Z,57.91
2018-09-05T12:33:04.393Z,58.01
2018-09-05T12:34:14.065Z,57.91
2018-09-05T12:35:24.006Z,57.81
2018-09-05T12:36:33.448Z,57.81
2018-09-05T12:37:43.126Z,58.01
2018-09-05T12:38:52.286Z,58.01
2018-09-05T12:40:01.958Z,58.11
2018-09-05T12:41:11.377Z,58.01
2018-09-05T12:42:21.739Z,57.91
2018-09-05T12:43:31.495Z,57.91
2018-09-05T12:44:40.634Z,58.3
2018-09-05T12:45:51.024Z,58.3
2018-09-05T12:47:01.343Z,58.01
2018-09-05T12:48:11.127Z,58.01
2018-09-05T12:49:20.552Z,58.2
2018-09-05T12:50:30.671Z,58.11
2018-09-05T12:51:40.710Z,58.11
2018-09-05T12:52:49.960Z,58.11
2018-09-05T12:53:59.001Z,58.11
2018-09-05T12:55:08.179Z,58.11
2018-09-05T12:56:18.373Z,58.3
2018-09-05T12:57:28.780Z,58.01
2018-09-05T12:58:38.198Z,58.39
2018-09-05T12:59:47.667Z,58.2
2018-09-05T13:00:57.610Z,58.39
2018-09-05T13:02:07.023Z,58.2
2018-09-05T13:03:16.438Z,57.81
2018-09-05T13:04:26.281Z,58.49
2018-09-05T13:05:35.898Z,57.91
2018-09-05T13:06:46.075Z,57.81
2018-09-05T13:07:55.281Z,57.81
2018-09-05T13:09:05.704Z,57.81
2018-09-05T13:10:15.173Z,58.01
2018-09-05T13:11:24.994Z,58.01
2018-09-05T13:12:35.029Z,58.01
2018-09-05T13:13:44.192Z,58.01
2018-09-05T13:14:53.693Z,58.01
2018-09-05T13:16:03.123Z,58.01
2018-09-05T13:17:12.296Z,58.01
2018-09-05T13:18:21.724Z,57.91
2018-09-05T13:19:31.225Z,58.01
2018-09-05T13:20:40.642Z,57.81
2018-09-05T13:21:50.326Z,57.81
2018-09-05T13:22:59.496Z,57.81
2018-09-05T13:24:09.225Z,57.91
2018-09-05T13:25:18.237Z,57.71
2018-09-05T13:26:27.930Z,58.11
2018-09-05T13:27:38.055Z,57.53
2018-09-05T13:28:47.471Z,57.71
2018-09-05T13:29:56.895Z,57.84
2018-09-05T13:31:06.058Z,57.81
2018-09-05T13:32:15.502Z,57.91
2018-09-05T13:33:24.652Z,57.94
2018-09-05T13:34:34.096Z,57.71
2018-09-05T13:35:43.782Z,57.71
2018-09-05T13:36:52.695Z,57.75
2018-09-05T13:38:02.134Z,57.62
2018-09-05T13:39:11.309Z,57.55
2018-09-05T13:40:20.749Z,57.55
2018-09-05T13:41:30.219Z,57.33
2018-09-05T13:42:39.957Z,57.45
2018-09-05T13:43:49.393Z,57.36
2018-09-05T13:44:58.629Z,57.43
2018-09-05T13:46:08.613Z,57.45
2018-09-05T13:47:18.066Z,57.45
2018-09-05T13:48:27.228Z,57.36
2018-09-05T13:49:36.398Z,57.43
2018-09-05T13:50:46.095Z,57.36
2018-09-05T13:51:55.261Z,57.26
2018-09-05T13:53:04.432Z,57.36
2018-09-05T13:54:13.852Z,57.36
2018-09-05T13:55:23.790Z,57.26
2018-09-05T13:56:33.572Z,57.55
2018-09-05T13:57:43.083Z,57.55
2018-09-05T13:58:52.262Z,57.43
2018-09-05T14:00:02.244Z,57.36
2018-09-05T14:01:11.411Z,57.55
2018-09-05T14:02:21.107Z,57.45
2018-09-05T14:03:30.586Z,57.45
2018-09-05T14:04:40.020Z,57.45
2018-09-05T14:05:49.494Z,57.07
2018-09-05T14:06:59.166Z,57.26
2018-09-05T14:08:08.594Z,57.07
2018-09-05T14:09:18.288Z,57.26
2018-09-05T14:10:28.283Z,57.26
2018-09-05T14:11:37.465Z,57.17
2018-09-05T14:12:46.684Z,57.26
2018-09-05T14:13:56.388Z,57.26
2018-09-05T14:15:05.570Z,57.26
2018-09-05T14:16:14.986Z,57.26
2018-09-05T14:17:23.917Z,57.26
2018-09-05T14:18:33.584Z,57.26
2018-09-05T14:19:42.990Z,57.36
2018-09-05T14:20:51.881Z,57.26
2018-09-05T14:22:01.335Z,57.26
2018-09-05T14:23:10.785Z,57.26
2018-09-05T14:24:20.595Z,57.26
2018-09-05T14:25:29.795Z,57.26
2018-09-05T14:26:39.907Z,57.26
2018-09-05T14:27:49.409Z,57.26
2018-09-05T14:28:59.188Z,57.26
2018-09-05T14:30:09.681Z,57.17
2018-09-05T14:31:19.060Z,57.17
2018-09-05T14:32:28.762Z,57.17
2018-09-05T14:33:37.420Z,57.17
2018-09-05T14:34:46.593Z,57.17
2018-09-05T14:35:55.793Z,57.26
2018-09-05T14:37:04.730Z,57.36
2018-09-05T14:38:14.180Z,57.07
2018-09-05T14:39:23.377Z,57.26
2018-09-05T14:40:32.552Z,56.97
2018-09-05T14:41:41.980Z,57.55
2018-09-05T14:42:51.665Z,57.45
2018-09-05T14:44:01.095Z,57.26
2018-09-05T14:45:10.827Z,57.36
2018-09-05T14:46:20.521Z,57.36
2018-09-05T14:47:29.966Z,57.45
2018-09-05T14:48:39.202Z,57.45
2018-09-05T14:49:49.150Z,57.36
2018-09-05T14:50:58.582Z,57.45
2018-09-05T14:52:08.264Z,57.55
2018-09-05T14:53:17.944Z,57.55
2018-09-05T14:54:27.531Z,57.45
2018-09-05T14:55:37.648Z,57.45
2018-09-05T14:56:47.331Z,57.55